createdAt,value
2023-04-29T00:01:05.828Z,1.40
2023-04-29T00:03:32.910Z,1.30
2023-04-29T00:06:00.907Z,1.53
2023-04-29T00:08:28.007Z,1.30
2023-04-29T00:10:55.302Z,1.20
2023-04-29T00:13:22.075Z,1.37
2023-04-29T00:15:48.910Z,1.73
2023-04-29T00:18:15.627Z,2.03
2023-04-29T00:20:43.244Z,1.40
2023-04-29T00:23:09.824Z,1.50
2023-04-29T00:25:38.200Z,1.40
2023-04-29T00:28:05.911Z,1.47
2023-04-29T00:30:34.256Z,1.30
2023-04-29T00:33:01.028Z,1.30
2023-04-29T00:35:27.718Z,1.30
2023-04-29T00:37:54.352Z,1.53
2023-04-29T00:40:21.157Z,1.20
2023-04-29T00:42:47.791Z,1.33
2023-04-29T00:45:14.556Z,1.33
2023-04-29T00:47:41.839Z,1.70
2023-04-29T00:50:08.991Z,1.40
2023-04-29T00:52:37.523Z,1.20
2023-04-29T00:55:06.579Z,1.40
2023-04-29T00:57:34.418Z,1.50
2023-04-29T01:00:01.401Z,1.63
2023-04-29T01:02:28.594Z,1.80
2023-04-29T01:04:55.561Z,1.50
2023-04-29T01:07:45.631Z,1.43
2023-04-29T01:10:19.781Z,1.50
2023-04-29T01:12:54.596Z,1.50
2023-04-29T01:15:30.459Z,1.50
2023-04-29T01:18:13.567Z,2.00
2023-04-29T01:20:41.987Z,1.30
2023-04-29T01:23:08.601Z,1.80
2023-04-29T01:25:35.532Z,1.33
2023-04-29T01:28:20.959Z,1.47
2023-04-29T01:31:03.890Z,1.60
2023-04-29T01:33:43.177Z,1.53
2023-04-29T01:36:35.861Z,1.80
2023-04-29T01:39:16.295Z,1.47
2023-04-29T01:41:45.204Z,1.40
2023-04-29T01:44:23.414Z,1.47
2023-04-29T01:46:54.238Z,1.70
2023-04-29T01:49:22.153Z,1.40
2023-04-29T01:51:48.783Z,1.60
2023-04-29T01:54:16.148Z,1.73
2023-04-29T01:56:43.275Z,3.17
2023-04-29T01:59:10.765Z,1.50
2023-04-29T02:01:37.487Z,1.50
2023-04-29T02:04:04.382Z,1.53
2023-04-29T02:06:32.072Z,1.70
2023-04-29T02:08:59.119Z,1.43
2023-04-29T02:11:25.879Z,1.43
2023-04-29T02:13:52.566Z,1.40
2023-04-29T02:16:19.394Z,1.50
2023-04-29T02:18:46.140Z,1.57
2023-04-29T02:21:12.773Z,1.50
2023-04-29T02:23:39.408Z,1.50
2023-04-29T02:26:06.907Z,1.50
2023-04-29T02:28:34.919Z,1.57
2023-04-29T02:31:01.905Z,1.63
2023-04-29T02:33:28.521Z,1.50
2023-04-29T02:35:55.124Z,1.60
2023-04-29T02:38:21.756Z,1.63
2023-04-29T02:40:48.680Z,1.63
2023-04-29T02:43:15.330Z,1.90
2023-04-29T02:45:42.051Z,1.43
2023-04-29T02:48:08.805Z,1.67
2023-04-29T02:50:35.579Z,1.50
2023-04-29T02:53:02.242Z,1.40
2023-04-29T02:55:28.908Z,1.40
2023-04-29T02:57:55.553Z,1.47
2023-04-29T03:00:22.431Z,1.50
2023-04-29T03:02:49.217Z,1.40
2023-04-29T03:05:16.073Z,1.70
2023-04-29T03:07:42.769Z,1.60
2023-04-29T03:10:09.858Z,1.57
2023-04-29T03:12:36.973Z,1.80
2023-04-29T03:15:03.828Z,1.70
2023-04-29T03:17:30.516Z,1.50
2023-04-29T03:19:57.168Z,1.70
2023-04-29T03:22:23.748Z,1.60
2023-04-29T03:24:50.405Z,1.77
2023-04-29T03:27:17.683Z,1.90
2023-04-29T03:29:44.525Z,1.60
2023-04-29T03:32:11.383Z,1.90
2023-04-29T03:34:37.973Z,1.80
2023-04-29T03:37:04.582Z,1.87
2023-04-29T03:39:32.812Z,1.90
2023-04-29T03:41:59.717Z,1.77
2023-04-29T03:44:26.704Z,1.80
2023-04-29T03:46:53.436Z,1.60
2023-04-29T03:49:20.057Z,2.10
2023-04-29T03:51:47.097Z,1.90
2023-04-29T03:54:13.772Z,2.10
2023-04-29T03:56:41.120Z,1.90
2023-04-29T03:59:07.723Z,2.03
2023-04-29T04:01:34.591Z,2.13
2023-04-29T04:04:01.512Z,1.80
2023-04-29T04:06:28.606Z,1.93
2023-04-29T04:08:55.326Z,2.00
2023-04-29T04:11:21.933Z,1.60
2023-04-29T04:13:49.750Z,2.00
2023-04-29T04:16:16.418Z,1.80
2023-04-29T04:18:43.064Z,2.10
2023-04-29T04:21:11.097Z,1.80
2023-04-29T04:23:40.951Z,2.20
2023-04-29T04:26:08.082Z,1.80
2023-04-29T04:28:34.743Z,1.83
2023-04-29T04:31:01.462Z,1.90
2023-04-29T04:33:28.258Z,2.20
2023-04-29T04:35:55.064Z,1.90
2023-04-29T04:38:23.142Z,2.30
2023-04-29T04:40:49.741Z,2.10
2023-04-29T04:43:17.375Z,2.03
2023-04-29T04:45:44.268Z,2.07
2023-04-29T04:48:10.942Z,2.10
2023-04-29T04:50:37.674Z,1.63
2023-04-29T04:53:04.295Z,2.10
2023-04-29T04:55:33.376Z,1.80
2023-04-29T04:58:00.237Z,1.93
2023-04-29T05:00:26.868Z,1.83
2023-04-29T05:02:53.688Z,2.03
2023-04-29T05:05:20.981Z,2.10
2023-04-29T05:07:47.628Z,2.17
2023-04-29T05:10:14.240Z,1.80
2023-04-29T05:12:41.079Z,1.70
2023-04-29T05:15:08.378Z,1.73
2023-04-29T05:17:36.342Z,1.60
2023-04-29T05:20:03.390Z,1.70
2023-04-29T05:22:30.053Z,1.90
2023-04-29T05:25:02.579Z,1.90
2023-04-29T05:27:29.549Z,2.40
2023-04-29T05:29:56.822Z,1.60
2023-04-29T05:32:23.476Z,1.70
2023-04-29T05:34:50.528Z,1.80
2023-04-29T05:37:17.157Z,1.80
2023-04-29T05:39:43.800Z,2.07
2023-04-29T05:42:10.457Z,1.77
2023-04-29T05:44:37.155Z,2.40
2023-04-29T05:47:03.787Z,3.00
2023-04-29T05:49:30.438Z,2.30
2023-04-29T05:51:57.063Z,2.80
2023-04-29T05:54:23.704Z,3.37
2023-04-29T05:56:50.361Z,2.27
2023-04-29T05:59:17.007Z,2.50
2023-04-29T06:01:43.610Z,2.30
2023-04-29T06:04:10.567Z,3.10
2023-04-29T06:06:37.727Z,2.93
2023-04-29T06:09:08.556Z,2.53
2023-04-29T06:11:40.255Z,2.70
2023-04-29T06:14:06.942Z,2.50
2023-04-29T06:16:34.139Z,3.77
2023-04-29T06:19:01.638Z,2.40
2023-04-29T06:21:28.606Z,2.27
2023-04-29T06:23:55.244Z,2.07
2023-04-29T06:26:22.312Z,2.83
2023-04-29T06:28:48.931Z,2.40
2023-04-29T06:31:16.196Z,2.90
2023-04-29T06:33:43.928Z,3.00
2023-04-29T06:36:10.808Z,2.80
2023-04-29T06:38:37.531Z,3.70
2023-04-29T06:41:04.333Z,3.60
2023-04-29T06:43:31.211Z,3.43
2023-04-29T06:45:57.829Z,3.37
2023-04-29T06:48:24.705Z,2.67
2023-04-29T06:50:56.244Z,3.30
2023-04-29T06:53:23.562Z,4.17
2023-04-29T06:55:50.924Z,3.60
2023-04-29T06:58:19.454Z,3.00
2023-04-29T07:00:47.384Z,3.13
2023-04-29T07:03:14.883Z,3.40
2023-04-29T07:05:42.826Z,3.47
2023-04-29T07:08:10.329Z,5.10
2023-04-29T07:10:37.012Z,3.33
2023-04-29T07:13:03.841Z,3.63
2023-04-29T07:15:33.690Z,3.13
2023-04-29T07:18:03.081Z,3.50
2023-04-29T07:20:29.729Z,4.03
2023-04-29T07:22:56.618Z,4.47
2023-04-29T07:25:23.260Z,4.83
2023-04-29T07:27:49.904Z,3.23
2023-04-29T07:30:16.515Z,3.57
2023-04-29T07:32:43.160Z,3.73
2023-04-29T07:35:09.893Z,3.17
2023-04-29T07:37:36.526Z,3.60
2023-04-29T07:40:03.198Z,4.23
2023-04-29T07:42:30.267Z,4.07
2023-04-29T07:44:58.575Z,3.47
2023-04-29T07:47:25.328Z,3.13
2023-04-29T07:49:52.672Z,2.80
2023-04-29T07:52:19.361Z,3.00
2023-04-29T07:54:46.020Z,3.50
2023-04-29T07:57:12.684Z,3.73
2023-04-29T07:59:39.386Z,3.23
2023-04-29T08:02:06.531Z,3.17
2023-04-29T08:04:33.392Z,3.27
2023-04-29T08:07:00.179Z,3.28
2023-04-29T08:09:26.779Z,3.80
2023-04-29T08:11:53.408Z,4.57
2023-04-29T08:14:20.110Z,3.63
2023-04-29T08:16:46.713Z,3.53
2023-04-29T08:19:13.401Z,4.63
2023-04-29T08:21:40.024Z,4.27
2023-04-29T08:24:06.710Z,4.17
2023-04-29T08:26:33.471Z,4.17
2023-04-29T08:29:00.311Z,6.43
2023-04-29T08:31:26.994Z,4.97
2023-04-29T08:33:53.779Z,4.43
2023-04-29T08:36:20.420Z,5.17
2023-04-29T08:38:48.750Z,6.30
2023-04-29T08:41:16.695Z,7.57
2023-04-29T08:43:43.553Z,5.00
2023-04-29T08:46:10.743Z,5.90
2023-04-29T08:48:38.032Z,4.47
2023-04-29T08:51:04.981Z,3.97
2023-04-29T08:53:31.594Z,5.27
2023-04-29T08:56:07.430Z,6.27
2023-04-29T08:58:36.201Z,5.77
2023-04-29T09:01:03.114Z,5.53
2023-04-29T09:03:53.081Z,5.47
2023-04-29T09:06:21.185Z,5.17
2023-04-29T09:08:47.939Z,4.87
2023-04-29T09:11:15.429Z,4.53
2023-04-29T09:13:42.101Z,3.97
2023-04-29T09:16:12.878Z,4.67
2023-04-29T09:18:47.163Z,3.50
2023-04-29T09:21:23.725Z,4.20
2023-04-29T09:23:52.630Z,4.70
2023-04-29T09:26:20.494Z,3.40
2023-04-29T09:28:47.798Z,3.87
2023-04-29T09:31:14.728Z,8.27
2023-04-29T09:33:55.933Z,4.40
2023-04-29T09:36:47.774Z,3.67
2023-04-29T09:39:17.291Z,3.90
2023-04-29T09:41:53.059Z,3.53
2023-04-29T09:44:28.791Z,3.73
2023-04-29T09:46:57.232Z,2.37
2023-04-29T09:49:29.420Z,2.60
2023-04-29T09:51:59.137Z,2.67
2023-04-29T09:54:30.787Z,3.17
2023-04-29T09:57:05.737Z,3.03
2023-04-29T09:59:36.071Z,3.37
2023-04-29T10:02:17.902Z,3.20
2023-04-29T10:04:46.383Z,2.87
2023-04-29T10:07:17.890Z,3.30
2023-04-29T10:09:47.221Z,3.00
2023-04-29T10:12:18.478Z,2.97
2023-04-29T10:14:54.955Z,3.33
2023-04-29T10:17:30.010Z,3.77
2023-04-29T10:20:07.311Z,3.97
2023-04-29T10:22:42.519Z,3.23
2023-04-29T10:25:11.559Z,2.73
2023-04-29T10:27:39.219Z,3.80
2023-04-29T10:30:09.523Z,3.80
2023-04-29T10:35:13.034Z,4.00
2023-04-29T10:37:43.510Z,3.70
2023-04-29T10:40:22.692Z,3.50
2023-04-29T10:42:51.399Z,3.70
2023-04-29T10:45:29.957Z,2.80
2023-04-29T10:48:02.903Z,2.70
2023-04-29T10:50:30.368Z,3.60
2023-04-29T10:52:57.802Z,2.97
2023-04-29T10:55:24.954Z,3.67
2023-04-29T10:57:58.451Z,3.40
2023-04-29T11:00:29.672Z,2.90
2023-04-29T11:02:57.405Z,3.80
2023-04-29T11:05:31.888Z,3.50
2023-04-29T11:08:16.240Z,3.33
2023-04-29T11:10:43.855Z,3.13
2023-04-29T11:13:30.504Z,3.33
2023-04-29T11:16:11.282Z,3.30
2023-04-29T11:19:05.047Z,3.07
2023-04-29T11:21:33.623Z,2.90
2023-04-29T11:24:01.111Z,3.40
2023-04-29T11:26:27.749Z,3.20
2023-04-29T11:28:54.467Z,3.57
2023-04-29T11:31:21.425Z,3.50
2023-04-29T11:33:48.177Z,3.30
2023-04-29T11:36:15.153Z,2.90
2023-04-29T11:38:41.859Z,2.60
2023-04-29T11:41:11.114Z,3.10
2023-04-29T11:43:39.877Z,2.53
2023-04-29T11:46:13.225Z,3.03
2023-04-29T11:48:47.681Z,3.50
2023-04-29T11:51:15.901Z,3.63
2023-04-29T11:53:42.726Z,2.73
2023-04-29T11:56:11.273Z,2.77
2023-04-29T11:58:39.151Z,2.50
2023-04-29T12:01:05.994Z,3.00
2023-04-29T12:03:33.982Z,3.70
2023-04-29T12:06:02.101Z,2.90
2023-04-29T12:08:30.694Z,3.13
2023-04-29T12:10:59.416Z,2.67
2023-04-29T12:13:28.905Z,2.70
2023-04-29T12:15:56.459Z,2.90
2023-04-29T12:18:23.503Z,10.23
2023-04-29T12:20:55.937Z,3.10
2023-04-29T12:23:28.684Z,3.00
2023-04-29T12:25:57.435Z,2.67
2023-04-29T12:28:25.194Z,2.40
2023-04-29T12:30:56.541Z,2.87
2023-04-29T12:33:28.384Z,2.27
2023-04-29T12:35:57.397Z,1.80
2023-04-29T12:38:30.451Z,2.37
2023-04-29T12:40:59.371Z,3.07
2023-04-29T12:43:34.857Z,2.40
2023-04-29T12:46:05.693Z,2.10
2023-04-29T12:48:34.019Z,2.23
2023-04-29T12:51:02.016Z,3.40
2023-04-29T12:53:32.575Z,2.10
2023-04-29T12:55:59.391Z,2.40
2023-04-29T12:58:29.678Z,2.40
2023-04-29T13:00:56.664Z,2.60
2023-04-29T13:03:23.901Z,1.97
2023-04-29T13:05:52.624Z,2.53
2023-04-29T13:08:20.186Z,2.23
2023-04-29T13:10:47.066Z,3.07
2023-04-29T13:13:13.758Z,2.93
2023-04-29T13:15:40.478Z,2.57
2023-04-29T13:18:07.432Z,2.60
2023-04-29T13:20:40.897Z,2.30
2023-04-29T13:23:09.338Z,1.80
2023-04-29T13:25:36.162Z,2.30
2023-04-29T13:28:02.879Z,2.00
2023-04-29T13:30:29.579Z,2.03
2023-04-29T13:32:59.864Z,1.70
2023-04-29T13:35:31.337Z,2.17
2023-04-29T13:37:58.344Z,2.20
2023-04-29T13:40:28.058Z,2.97
2023-04-29T13:43:04.959Z,2.60
2023-04-29T13:45:38.844Z,2.43
2023-04-29T13:48:16.793Z,2.30
2023-04-29T13:51:14.564Z,1.90
2023-04-29T14:02:07.878Z,2.17
2023-04-29T14:04:06.348Z,2.03
2023-04-29T14:06:33.668Z,1.50
2023-04-29T14:09:02.201Z,1.77
2023-04-29T14:11:30.305Z,2.03
2023-04-29T14:13:57.070Z,1.70
2023-04-29T14:16:23.786Z,2.40
2023-04-29T14:18:50.536Z,1.70
2023-04-29T14:21:17.301Z,1.73
2023-04-29T14:23:46.011Z,1.83
2023-04-29T14:26:27.070Z,1.53
2023-04-29T14:29:03.991Z,2.10
2023-04-29T14:31:35.825Z,1.57
2023-04-29T14:34:02.552Z,2.70
2023-04-29T14:36:29.146Z,1.90
2023-04-29T14:38:56.098Z,2.43
2023-04-29T14:41:22.746Z,1.73
2023-04-29T14:43:49.490Z,2.30
2023-04-29T14:46:16.497Z,2.80
2023-04-29T14:48:43.557Z,2.10
2023-04-29T14:51:10.603Z,2.23
2023-04-29T14:53:40.352Z,2.60
2023-04-29T14:56:07.916Z,2.33
2023-04-29T14:58:34.645Z,2.40
2023-04-29T15:01:01.309Z,2.50
2023-04-29T15:03:28.012Z,2.30
2023-04-29T15:05:55.090Z,2.10
2023-04-29T15:08:21.872Z,2.37
2023-04-29T15:10:49.782Z,2.00
2023-04-29T15:13:16.504Z,2.40
2023-04-29T15:15:43.168Z,2.00
2023-04-29T15:18:09.938Z,2.43
2023-04-29T15:20:39.607Z,2.13
2023-04-29T15:23:06.774Z,2.17
2023-04-29T15:25:34.236Z,2.30
2023-04-29T15:28:02.283Z,2.27
2023-04-29T15:30:28.916Z,2.10
2023-04-29T15:32:55.686Z,2.47
2023-04-29T15:35:22.559Z,2.33
2023-04-29T15:37:49.387Z,2.53
2023-04-29T15:40:17.357Z,2.80
2023-04-29T15:42:44.110Z,2.80
2023-04-29T15:45:11.615Z,2.70
2023-04-29T15:47:38.677Z,3.47
2023-04-29T15:50:06.027Z,3.17
2023-04-29T15:52:32.664Z,3.27
2023-04-29T15:54:59.502Z,2.73
2023-04-29T15:57:26.366Z,3.10
2023-04-29T15:59:53.383Z,3.30
2023-04-29T16:02:20.846Z,2.93
2023-04-29T16:04:48.072Z,2.93
2023-04-29T16:07:14.868Z,2.90
2023-04-29T16:09:42.339Z,3.10
2023-04-29T16:12:11.437Z,2.80
2023-04-29T16:14:38.251Z,3.50
2023-04-29T16:17:05.897Z,3.13
2023-04-29T16:19:34.526Z,3.10
2023-04-29T16:22:03.278Z,3.20
2023-04-29T16:24:30.227Z,3.03
2023-04-29T16:26:57.190Z,2.50
2023-04-29T16:29:23.835Z,2.60
2023-04-29T16:31:50.753Z,2.33
2023-04-29T16:34:17.548Z,2.50
2023-04-29T16:36:44.221Z,2.20
2023-04-29T16:39:10.830Z,2.17
2023-04-29T16:41:37.517Z,2.27
2023-04-29T16:44:04.576Z,1.97
2023-04-29T16:46:32.418Z,1.63
2023-04-29T16:48:59.221Z,1.70
2023-04-29T16:51:25.977Z,1.80
2023-04-29T16:53:53.289Z,1.70
2023-04-29T16:56:21.447Z,1.80
2023-04-29T16:58:48.512Z,2.33
2023-04-29T17:01:15.593Z,1.80
2023-04-29T17:03:42.451Z,1.70
2023-04-29T17:06:09.210Z,1.70
2023-04-29T17:08:36.179Z,2.20
2023-04-29T17:11:04.974Z,2.07
2023-04-29T17:13:31.632Z,1.90
2023-04-29T17:15:58.606Z,2.50
2023-04-29T17:18:25.769Z,2.20
2023-04-29T17:20:52.585Z,1.87
2023-04-29T17:23:19.253Z,2.07
2023-04-29T17:25:45.864Z,2.50
2023-04-29T17:28:12.807Z,2.20
2023-04-29T17:30:39.461Z,2.10
2023-04-29T17:33:06.239Z,1.93
2023-04-29T17:35:33.473Z,1.60
2023-04-29T17:38:00.529Z,2.00
2023-04-29T17:40:27.547Z,1.80
2023-04-29T17:42:54.263Z,1.60
2023-04-29T17:45:20.930Z,1.80
2023-04-29T17:47:48.154Z,1.60
2023-04-29T17:50:14.900Z,2.00
2023-04-29T17:52:41.615Z,1.60
2023-04-29T17:55:08.801Z,1.90
2023-04-29T17:57:36.414Z,1.87
2023-04-29T18:00:04.634Z,2.27
2023-04-29T18:02:31.495Z,1.73
2023-04-29T18:04:58.170Z,2.00
2023-04-29T18:07:24.954Z,2.00
2023-04-29T18:09:51.814Z,1.77
2023-04-29T18:12:18.699Z,2.03
2023-04-29T18:14:46.626Z,2.20
2023-04-29T18:17:13.308Z,2.03
2023-04-29T18:19:40.052Z,2.10
2023-04-29T18:22:07.464Z,2.03
2023-04-29T18:24:34.176Z,2.00
2023-04-29T18:27:02.250Z,1.90
2023-04-29T18:29:28.840Z,2.27
2023-04-29T18:31:55.588Z,1.87
2023-04-29T18:34:22.428Z,1.83
2023-04-29T18:36:49.026Z,2.07
2023-04-29T18:39:16.119Z,1.83
2023-04-29T18:41:42.887Z,2.07
2023-04-29T18:44:09.630Z,2.00
2023-04-29T18:46:36.354Z,1.70
2023-04-29T18:49:03.095Z,1.93
2023-04-29T18:51:30.241Z,2.10
2023-04-29T18:53:57.102Z,2.20
2023-04-29T18:56:23.917Z,2.03
2023-04-29T18:58:50.636Z,2.93
2023-04-29T19:01:18.884Z,2.70
2023-04-29T19:03:50.078Z,2.03
2023-04-29T19:06:17.691Z,2.20
2023-04-29T19:08:44.575Z,2.40
2023-04-29T19:11:11.202Z,2.23
2023-04-29T19:13:37.924Z,1.87
2023-04-29T19:16:04.773Z,1.90
2023-04-29T19:18:31.411Z,2.20
2023-04-29T19:20:58.220Z,2.20
2023-04-29T19:23:24.868Z,2.07
2023-04-29T19:25:51.614Z,2.30
2023-04-29T19:28:19.149Z,2.37
2023-04-29T19:30:45.785Z,2.47
2023-04-29T19:33:12.738Z,2.20
2023-04-29T19:35:39.388Z,3.77
2023-04-29T19:38:05.986Z,2.70
2023-04-29T19:40:32.832Z,2.90
2023-04-29T19:42:59.481Z,2.77
2023-04-29T19:45:26.327Z,2.37
2023-04-29T19:47:54.734Z,3.13
2023-04-29T19:50:22.543Z,2.30
2023-04-29T19:52:49.426Z,2.53
2023-04-29T19:55:16.919Z,3.00
2023-04-29T19:57:43.992Z,6.77
2023-04-29T20:00:13.436Z,4.73
2023-04-29T20:02:42.175Z,5.60
2023-04-29T20:05:13.180Z,4.67
2023-04-29T20:07:41.160Z,4.13
2023-04-29T20:10:08.440Z,4.30
2023-04-29T20:12:35.622Z,3.43
2023-04-29T20:15:02.780Z,3.40
2023-04-29T20:17:29.427Z,3.37
2023-04-29T20:19:56.352Z,3.00
2023-04-29T20:22:23.303Z,3.57
2023-04-29T20:24:50.296Z,3.33
2023-04-29T20:27:16.914Z,3.20
2023-04-29T20:29:43.595Z,3.20
2023-04-29T20:32:10.608Z,3.13
2023-04-29T20:34:37.761Z,2.90
2023-04-29T20:37:04.421Z,3.00
2023-04-29T20:39:31.087Z,3.20
2023-04-29T20:41:58.517Z,3.10
2023-04-29T20:44:25.528Z,3.13
2023-04-29T20:46:52.966Z,3.17
2023-04-29T20:49:19.906Z,3.00
2023-04-29T20:51:47.221Z,3.00
2023-04-29T20:54:16.829Z,3.13
2023-04-29T20:56:43.487Z,2.90
2023-04-29T20:59:10.197Z,3.10
2023-04-29T21:01:37.924Z,3.30
2023-04-29T21:04:05.515Z,3.27
2023-04-29T21:06:32.409Z,3.70
2023-04-29T21:08:59.854Z,2.93
2023-04-29T21:11:26.525Z,2.97
2023-04-29T21:13:53.173Z,3.20
2023-04-29T21:16:20.193Z,3.17
2023-04-29T21:18:46.880Z,2.90
2023-04-29T21:21:13.519Z,3.27
2023-04-29T21:23:40.197Z,3.40
2023-04-29T21:26:06.942Z,2.93
2023-04-29T21:28:33.887Z,3.23
2023-04-29T21:31:00.560Z,3.40
2023-04-29T21:33:27.349Z,2.93
2023-04-29T21:35:56.006Z,3.03
2023-04-29T21:38:22.761Z,3.30
2023-04-29T21:40:49.484Z,3.43
2023-04-29T21:43:17.393Z,3.80
2023-04-29T21:45:44.687Z,3.77
2023-04-29T21:48:16.478Z,3.37
2023-04-29T21:50:44.304Z,3.57
2023-04-29T21:53:13.753Z,4.00
2023-04-29T21:55:42.233Z,3.23
2023-04-29T21:58:08.831Z,3.57
2023-04-29T22:00:40.562Z,3.60
2023-04-29T22:03:09.077Z,3.87
2023-04-29T22:05:36.288Z,3.83
2023-04-29T22:08:03.988Z,3.37
2023-04-29T22:10:30.609Z,3.77
2023-04-29T22:12:57.421Z,3.73
2023-04-29T22:15:28.747Z,3.60
2023-04-29T22:17:56.869Z,3.83
2023-04-29T22:20:23.797Z,3.63
2023-04-29T22:22:50.464Z,4.20
2023-04-29T22:25:19.593Z,3.77
2023-04-29T22:27:46.377Z,4.53
2023-04-29T22:30:13.736Z,3.73
2023-04-29T22:32:40.645Z,4.30
2023-04-29T22:35:07.664Z,3.90
2023-04-29T22:37:34.395Z,4.07
2023-04-29T22:40:00.980Z,4.33
2023-04-29T22:42:27.722Z,3.83
2023-04-29T22:44:54.368Z,3.50
2023-04-29T22:47:20.989Z,6.30
2023-04-29T22:49:47.680Z,4.33
2023-04-29T22:52:14.382Z,4.37
2023-04-29T22:54:40.989Z,4.90
2023-04-29T22:57:07.640Z,4.00
2023-04-29T22:59:34.321Z,4.27
2023-04-29T23:02:01.053Z,4.37
2023-04-29T23:04:27.743Z,4.80
2023-04-29T23:06:54.403Z,5.10
2023-04-29T23:09:21.048Z,4.37
2023-04-29T23:11:47.758Z,4.83
2023-04-29T23:14:14.395Z,4.50
2023-04-29T23:16:41.072Z,3.70
2023-04-29T23:19:07.756Z,3.97
2023-04-29T23:21:34.431Z,5.67
2023-04-29T23:24:01.027Z,4.80
2023-04-29T23:26:27.641Z,4.43
2023-04-29T23:28:54.281Z,4.00
2023-04-29T23:31:20.982Z,3.63
2023-04-29T23:33:48.608Z,5.00
2023-04-29T23:36:15.372Z,4.70
2023-04-29T23:38:42.013Z,4.77
2023-04-29T23:41:08.694Z,5.30
2023-04-29T23:43:35.303Z,4.73
2023-04-29T23:46:01.939Z,4.77
2023-04-29T23:48:28.582Z,4.87
2023-04-29T23:50:55.181Z,4.97
2023-04-29T23:53:21.824Z,4.70
2023-04-29T23:55:49.461Z,4.97
2023-04-29T23:58:16.031Z,4.70
